Time;durP1;ratioP1;P1;durP2;ratioP2;P2;SDS_P1;SDS_P2;PMS_P1;PMS_P2;Temp;Humidity;BMP_temperature;BMP_pressure;BME280_temperature;BME280_humidity;BME280_pressure;Samples;Min_cycle;Max_cycle;Signal;HPM_P1;HPM_P2
2022/03/28 00:01:42;;;;;;;47.85;21.82;;;;;;;-1.37;68.90;99151.94;1743590;82;21042;-55
2022/03/28 00:04:09;;;;;;;40.45;19.32;;;;;;;-1.40;69.15;99143.00;1742943;82;22106;-56
2022/03/28 00:06:36;;;;;;;47.73;21.15;;;;;;;-1.37;69.30;99142.63;1743317;82;20994;-56
2022/03/28 00:09:05;;;;;;;42.33;19.35;;;;;;;-1.36;69.41;99139.50;1746380;80;21018;-56
2022/03/28 00:11:33;;;;;;;38.42;19.48;;;;;;;-1.38;70.95;99138.33;1774143;80;21489;-56
2022/03/28 00:14:00;;;;;;;49.15;22.22;;;;;;;-1.40;70.46;99136.85;1749932;80;20999;-57
2022/03/28 00:16:27;;;;;;;51.20;21.65;;;;;;;-1.40;70.61;99136.34;1743194;82;22059;-57
2022/03/28 00:18:54;;;;;;;50.65;25.62;;;;;;;-1.44;71.46;99139.87;1754064;80;21033;-57
2022/03/28 00:21:21;;;;;;;50.10;23.22;;;;;;;-1.46;71.76;99131.73;1743046;81;21049;-57
2022/03/28 00:23:48;;;;;;;52.25;23.60;;;;;;;-1.53;72.55;99124.16;1744829;80;21045;-56
2022/03/28 00:26:14;;;;;;;49.98;23.98;;;;;;;-1.57;72.45;99124.16;1743267;82;20993;-57
2022/03/28 00:28:41;;;;;;;54.27;24.37;;;;;;;-1.59;72.60;99123.52;1749631;80;21526;-57
2022/03/28 00:31:08;;;;;;;52.27;22.85;;;;;;;-1.61;72.44;99115.72;1743865;80;20962;-56
2022/03/28 00:33:35;;;;;;;36.83;18.80;;;;;;;-1.61;72.76;99114.39;1750782;80;21002;-57
2022/03/28 00:36:03;;;;;;;44.15;20.82;;;;;;;-1.65;73.05;99112.24;1743396;81;21398;-57
2022/03/28 00:38:30;;;;;;;40.12;18.67;;;;;;;-1.60;70.66;99108.06;1753353;80;21021;-57
2022/03/28 00:40:57;;;;;;;41.68;19.15;;;;;;;-1.65;70.30;99106.42;1743389;81;21261;-57
2022/03/28 00:43:24;;;;;;;41.85;20.45;;;;;;;-1.68;72.72;99100.64;1745033;80;21022;-56
2022/03/28 00:45:51;;;;;;;42.17;20.55;;;;;;;-1.60;71.98;99096.61;1743308;81;20994;-57
2022/03/28 00:48:18;;;;;;;50.33;19.45;;;;;;;-1.58;72.73;99094.59;1752770;79;21466;-57
2022/03/28 00:50:45;;;;;;;46.02;20.95;;;;;;;-1.57;71.86;99090.43;1768344;80;20973;-57
2022/03/28 00:53:13;;;;;;;43.75;18.42;;;;;;;-1.62;71.29;99088.81;1761803;80;21409;-57
2022/03/28 00:55:41;;;;;;;36.50;16.30;;;;;;;-1.63;69.10;99080.48;1743414;82;21454;-57
2022/03/28 00:58:08;;;;;;;38.85;19.57;;;;;;;-1.71;70.68;99078.73;1743067;81;21411;-57
2022/03/28 01:00:35;;;;;;;44.38;17.80;;;;;;;-1.73;72.39;99073.25;1742905;82;21002;-57
2022/03/28 01:03:03;;;;;;;42.45;18.37;;;;;;;-1.71;70.85;99073.89;1745036;80;21475;-57
2022/03/28 01:05:31;;;;;;;31.27;13.95;;;;;;;-1.66;69.90;99069.39;1743359;82;22172;-57
2022/03/28 01:08:00;;;;;;;27.17;11.50;;;;;;;-1.66;69.63;99063.58;1743215;80;21244;-56
2022/03/28 01:10:26;;;;;;;35.92;15.13;;;;;;;-1.72;71.00;99062.44;1743469;82;28421;-56
2022/03/28 01:12:54;;;;;;;29.92;13.78;;;;;;;-1.72;72.37;99060.28;1751039;80;20973;-57
2022/03/28 01:15:21;;;;;;;36.17;15.78;;;;;;;-1.67;70.87;99066.42;1754085;80;21032;-57
2022/03/28 01:18:06;;;;;;;36.42;15.98;;;;;;;-1.74;72.71;99062.30;1743180;81;22066;-57
2022/03/28 01:20:35;;;;;;;35.08;15.98;;;;;;;-1.72;71.40;99069.59;1765365;80;20962;-57
2022/03/28 01:23:03;;;;;;;41.00;14.20;;;;;;;-1.75;70.81;99060.64;1763856;80;21069;-56
2022/03/28 01:25:30;;;;;;;34.70;15.13;;;;;;;-1.79;71.12;99064.17;1743393;82;20990;-56
2022/03/28 01:27:58;;;;;;;32.23;14.73;;;;;;;-1.78;69.50;99059.17;1743123;82;21537;-56
2022/03/28 01:30:28;;;;;;;33.73;15.75;;;;;;;-1.86;70.41;99059.22;1743255;82;21650;-57
2022/03/28 01:32:56;;;;;;;35.60;15.93;;;;;;;-1.88;70.22;99055.06;1752885;80;21001;-56
2022/03/28 01:35:33;;;;;;;38.25;15.28;;;;;;;-1.94;71.57;99051.30;1742988;82;21032;-56
2022/03/28 01:38:02;;;;;;;44.03;21.15;;;;;;;-1.93;71.20;99051.62;1749277;81;21501;-56
2022/03/28 01:40:29;;;;;;;40.05;19.12;;;;;;;-1.88;72.72;99048.42;1743339;82;20986;-57
2022/03/28 01:42:57;;;;;;;40.90;17.90;;;;;;;-1.85;73.59;99048.91;1743017;82;22081;-56
2022/03/28 01:45:24;;;;;;;38.90;19.15;;;;;;;-1.80;70.66;99049.20;1743186;82;21455;-57
2022/03/28 01:47:50;;;;;;;45.63;21.10;;;;;;;-1.72;70.20;99053.64;1743187;80;21006;-56
2022/03/28 01:50:18;;;;;;;38.28;17.52;;;;;;;-1.69;73.32;99047.17;1762247;80;20990;-56
2022/03/28 01:52:46;;;;;;;38.50;17.50;;;;;;;-1.69;73.00;99045.84;1774002;80;20950;-56
2022/03/28 01:55:13;;;;;;;36.93;16.30;;;;;;;-1.72;72.47;99047.00;1755740;80;22072;-56
2022/03/28 01:57:41;;;;;;;34.38;16.37;;;;;;;-1.84;73.57;99045.25;1742932;82;20966;-56
2022/03/28 02:00:17;;;;;;;35.83;15.43;;;;;;;-1.86;72.05;99037.14;1743109;82;21005;-56
2022/03/28 02:02:47;;;;;;;29.42;14.35;;;;;;;-1.89;71.11;99032.16;1743269;81;21021;-56
2022/03/28 02:05:15;;;;;;;30.48;14.03;;;;;;;-1.97;71.93;99033.53;1743108;82;21440;-56
2022/03/28 02:07:44;;;;;;;;;;;;;;;-1.96;71.76;99028.58;1745880;82;21066;-56
2022/03/28 02:10:14;;;;;;;27.42;15.45;;;;;;;-2.00;73.27;99026.25;1742935;82;20772;-56
2022/03/28 02:12:41;;;;;;;36.80;15.23;;;;;;;-2.05;73.88;99025.96;1743123;81;21032;-56
2022/03/28 02:15:09;;;;;;;29.35;14.03;;;;;;;-2.05;73.85;99025.11;1743014;82;21018;-56
2022/03/28 02:17:39;;;;;;;32.28;13.53;;;;;;;-2.09;73.30;99023.81;1743211;81;21085;-56
2022/03/28 02:20:08;;;;;;;40.88;16.80;;;;;;;-2.12;71.69;99020.19;1742881;82;21446;-57
2022/03/28 02:22:36;;;;;;;31.10;15.55;;;;;;;-2.17;74.17;99013.23;1742987;81;21649;-56
2022/03/28 02:25:05;;;;;;;30.90;13.83;;;;;;;-2.15;74.70;99009.89;1742802;82;20998;-56
2022/03/28 02:27:32;;;;;;;;;;;;;;;-2.11;74.56;99006.73;1745764;81;21005;-56
2022/03/28 02:29:59;;;;;;;33.65;14.50;;;;;;;-2.07;74.69;99004.54;1743098;82;20141;-57
2022/03/28 02:32:26;;;;;;;19.35;9.05;;;;;;;-2.03;74.66;99000.05;1747128;80;20982;-57
2022/03/28 02:34:53;;;;;;;40.85;17.77;;;;;;;-1.93;72.57;98995.00;1759837;80;20942;-56
2022/03/28 02:37:20;;;;;;;38.78;18.00;;;;;;;-1.82;73.63;98990.09;1745673;81;21450;-56
2022/03/28 02:39:47;;;;;;;31.27;16.65;;;;;;;-1.71;74.21;98994.16;1742935;82;21006;-56
2022/03/28 02:42:14;;;;;;;28.62;16.45;;;;;;;-1.68;74.20;98987.69;1740966;81;21057;-57
2022/03/28 02:44:41;;;;;;;25.30;12.60;;;;;;;-1.72;73.97;98984.04;1749321;80;20978;-57
2022/03/28 02:47:08;;;;;;;31.02;15.95;;;;;;;-1.75;73.32;98979.09;1748739;80;21081;-56
2022/03/28 02:49:35;;;;;;;28.90;14.80;;;;;;;-1.77;73.31;98982.44;1760743;80;20897;-56
2022/03/28 02:52:02;;;;;;;25.72;11.63;;;;;;;-1.78;71.66;98987.42;1768148;80;21071;-56
2022/03/28 02:54:29;;;;;;;20.72;9.98;;;;;;;-1.83;71.25;98979.15;1760460;80;20991;-56
2022/03/28 02:56:56;;;;;;;22.85;10.82;;;;;;;-1.97;73.87;98978.57;1759399;80;21072;-55
2022/03/28 02:59:23;;;;;;;25.72;10.35;;;;;;;-1.98;73.31;98976.92;1752208;80;21336;-56
2022/03/28 03:01:50;;;;;;;31.90;13.75;;;;;;;-2.15;74.62;98985.99;1772161;80;21411;-55
2022/03/28 03:04:17;;;;;;;31.10;13.10;;;;;;;-2.19;73.27;98990.84;1752302;80;21080;-57
2022/03/28 03:06:44;;;;;;;25.17;12.58;;;;;;;-2.24;72.78;98986.54;1749983;80;21017;-57
2022/03/28 03:09:11;;;;;;;29.52;13.68;;;;;;;-2.37;73.51;98984.47;1744968;80;21703;-56
2022/03/28 03:11:40;;;;;;;31.77;14.15;;;;;;;-2.46;74.83;98986.01;1764752;80;21041;-56
2022/03/28 03:14:07;;;;;;;32.42;14.25;;;;;;;-2.50;75.97;98978.88;1757556;80;22997;-56
2022/03/28 03:16:34;;;;;;;36.38;13.50;;;;;;;-2.49;77.36;98979.70;1741369;82;21080;-57
2022/03/28 03:19:00;;;;;;;28.23;13.58;;;;;;;-2.49;76.21;98973.88;1741059;81;21116;-56
2022/03/28 03:21:27;;;;;;;28.17;13.62;;;;;;;-2.52;73.94;98968.94;1741630;82;21026;-57
2022/03/28 03:23:54;;;;;;;35.90;13.43;;;;;;;-2.56;76.43;98968.47;1741067;81;21502;-57
2022/03/28 03:26:21;;;;;;;26.07;12.88;;;;;;;-2.56;75.28;98968.97;1741271;81;21030;-57
2022/03/28 03:28:48;;;;;;;25.80;13.25;;;;;;;-2.57;73.87;98960.15;1741245;80;21148;-56
2022/03/28 03:31:15;;;;;;;21.20;11.63;;;;;;;-2.65;73.87;98962.87;1772196;80;20982;-57
2022/03/28 03:33:42;;;;;;;30.08;13.28;;;;;;;-2.69;76.70;98965.52;1770095;80;21700;-57
2022/03/28 03:36:09;;;;;;;25.43;12.03;;;;;;;-2.76;76.95;98963.72;1770128;80;21584;-56
2022/03/28 03:38:35;;;;;;;27.10;12.07;;;;;;;-2.75;77.21;98966.70;1743601;81;20994;-56
2022/03/28 03:41:02;;;;;;;30.80;11.90;;;;;;;-2.71;77.99;98962.72;1741654;81;21139;-56
2022/03/28 03:43:29;;;;;;;26.93;13.22;;;;;;;-2.66;77.65;98961.69;1741226;81;21076;-55
2022/03/28 03:45:56;;;;;;;97.22;41.33;;;;;;;-2.59;78.18;98958.67;1741294;81;21871;-57
2022/03/28 03:48:24;;;;;;;78.42;35.35;;;;;;;-2.51;76.95;98964.45;1741109;80;21401;-56
2022/03/28 03:50:51;;;;;;;40.80;18.98;;;;;;;-2.52;77.12;98962.30;1741688;81;21408;-57
2022/03/28 03:53:19;;;;;;;43.83;18.67;;;;;;;-2.47;75.47;98963.13;1748277;80;21046;-55
2022/03/28 03:55:47;;;;;;;80.10;31.87;;;;;;;-2.45;74.67;98956.63;1746661;80;21199;-56
2022/03/28 03:58:14;;;;;;;47.85;21.30;;;;;;;-2.50;76.11;98957.64;1748854;80;21043;-57
2022/03/28 04:00:41;;;;;;;53.50;22.42;;;;;;;-2.49;76.71;98951.83;1741528;81;21042;-56
2022/03/28 04:03:08;;;;;;;37.53;19.35;;;;;;;-2.51;76.94;98957.31;1744518;80;21120;-56
2022/03/28 04:05:37;;;;;;;66.87;31.60;;;;;;;-2.54;75.89;98952.36;1749333;80;21035;-56
2022/03/28 04:08:06;;;;;;;90.20;40.70;;;;;;;-2.59;76.16;98957.35;1743616;80;21048;-55
2022/03/28 04:10:34;;;;;;;725.45;300.18;;;;;;;-2.68;77.38;98955.73;1741593;81;25935;-57
2022/03/28 04:13:02;;;;;;;513.95;204.35;;;;;;;-2.69;75.23;98953.58;1745056;80;21018;-56
2022/03/28 04:15:29;;;;;;;288.50;106.97;;;;;;;-2.76;78.04;98953.94;1771980;80;21080;-56
2022/03/28 04:17:56;;;;;;;345.00;152.35;;;;;;;-2.76;76.29;98951.28;1770456;80;21053;-56
2022/03/28 04:20:24;;;;;;;83.00;35.17;;;;;;;-2.76;76.61;98950.45;1752007;80;21081;-56
2022/03/28 04:22:51;;;;;;;205.23;75.67;;;;;;;-2.70;75.13;98953.26;1741762;81;21425;-56
2022/03/28 04:25:19;;;;;;;128.47;58.78;;;;;;;-2.72;76.06;98954.44;1741320;81;21041;-55
2022/03/28 04:27:45;;;;;;;88.90;37.20;;;;;;;-2.72;76.47;98951.28;1747757;80;21017;-57
2022/03/28 04:30:12;;;;;;;129.78;58.45;;;;;;;-2.69;75.38;98943.47;1746337;80;21029;-57
2022/03/28 04:32:39;;;;;;;69.85;32.93;;;;;;;-2.68;76.79;98937.16;1741537;81;20975;-55
2022/03/28 04:35:08;;;;;;;49.40;25.23;;;;;;;-2.65;77.48;98942.97;1741337;81;21004;-56
2022/03/28 04:37:37;;;;;;;36.30;20.30;;;;;;;-2.60;76.38;98940.60;1747085;80;21034;-57
2022/03/28 04:40:07;;;;;;;37.42;17.87;;;;;;;-2.56;75.04;98939.27;1772247;80;21060;-56
2022/03/28 04:42:34;;;;;;;41.02;18.30;;;;;;;-2.58;77.43;98942.58;1766182;80;21080;-56
2022/03/28 04:45:01;;;;;;;33.90;17.65;;;;;;;-2.56;75.74;98939.27;1752834;80;21045;-55
2022/03/28 04:47:29;;;;;;;40.20;18.30;;;;;;;-2.53;75.06;98942.07;1740865;80;21696;-56
2022/03/28 04:49:57;;;;;;;32.33;15.93;;;;;;;-2.55;75.71;98934.79;1744656;80;21427;-57
2022/03/28 04:52:24;;;;;;;42.75;19.77;;;;;;;-2.51;74.92;98940.56;1744699;80;21462;-56
2022/03/28 04:54:51;;;;;;;46.75;19.62;;;;;;;-2.54;77.20;98936.44;1753822;80;21022;-56
2022/03/28 04:57:18;;;;;;;41.60;18.00;;;;;;;-2.53;76.99;98930.62;1741494;82;21124;-56
2022/03/28 04:59:45;;;;;;;43.17;20.72;;;;;;;-2.56;76.09;98929.98;1753596;80;21068;-56
2022/03/28 05:02:12;;;;;;;35.75;20.17;;;;;;;-2.57;77.44;98929.62;1750428;80;21029;-57
2022/03/28 05:04:39;;;;;;;39.23;18.40;;;;;;;-2.53;75.89;98933.28;1752832;80;21474;-56
2022/03/28 05:07:06;;;;;;;49.88;21.12;;;;;;;-2.49;76.04;98935.40;1756769;81;21124;-56
2022/03/28 05:09:33;;;;;;;39.03;18.85;;;;;;;-2.40;76.01;98930.88;1750964;80;21032;-57
2022/03/28 05:12:00;;;;;;;39.73;18.92;;;;;;;-2.34;77.28;98923.55;1772095;80;21123;-56
2022/03/28 05:14:27;;;;;;;40.30;21.55;;;;;;;-2.28;75.50;98923.68;1746460;80;21375;-57
2022/03/28 05:16:53;;;;;;;40.15;20.52;;;;;;;-2.32;77.06;98926.34;1741515;82;20953;-56
2022/03/28 05:19:20;;;;;;;41.58;19.85;;;;;;;-2.29;77.16;98928.66;1741307;81;21089;-57
2022/03/28 05:21:47;;;;;;;34.55;18.73;;;;;;;-2.20;75.36;98927.28;1741504;82;20998;-56
2022/03/28 05:24:14;;;;;;;38.42;18.30;;;;;;;-2.24;77.31;98925.97;1740987;81;21147;-56
2022/03/28 05:26:41;;;;;;;33.18;17.32;;;;;;;-2.20;77.16;98925.96;1770184;80;20994;-56
2022/03/28 05:29:08;;;;;;;39.00;18.12;;;;;;;-2.09;75.14;98930.86;1756432;80;21029;-57
2022/03/28 05:31:35;;;;;;;33.33;17.60;;;;;;;-2.03;74.96;98930.16;1746213;80;20950;-56
2022/03/28 05:34:01;;;;;;;33.92;16.20;;;;;;;-1.84;74.72;98925.69;1742889;80;21033;-56
2022/03/28 05:36:29;;;;;;;31.50;15.80;;;;;;;-1.54;76.16;98926.61;1741242;80;21139;-57
2022/03/28 05:38:56;;;;;;;35.33;15.78;;;;;;;-1.17;75.67;98928.90;1743042;80;21073;-57
2022/03/28 05:41:23;;;;;;;33.90;17.82;;;;;;;-0.92;74.79;98930.79;1759116;80;22287;-56
2022/03/28 05:43:50;;;;;;;29.70;15.93;;;;;;;-0.85;74.23;98931.71;1743008;80;20970;-57
2022/03/28 05:46:18;;;;;;;29.85;16.20;;;;;;;-0.81;73.78;98923.66;1740760;81;21566;-57
2022/03/28 05:48:45;;;;;;;32.70;13.97;;;;;;;-0.80;73.54;98927.97;1741272;81;21628;-56
2022/03/28 05:51:12;;;;;;;35.78;15.40;;;;;;;-0.73;73.24;98922.23;1771547;80;21040;-56
2022/03/28 05:53:39;;;;;;;33.25;16.62;;;;;;;-0.71;73.18;98920.20;1751942;80;21131;-56
2022/03/28 05:56:06;;;;;;;43.20;18.40;;;;;;;-0.60;72.74;98915.76;1741738;80;21088;-56
2022/03/28 05:58:33;;;;;;;24.60;12.80;;;;;;;-0.49;72.43;98913.63;1748290;80;21052;-57
2022/03/28 06:01:00;;;;;;;39.03;18.10;;;;;;;-0.40;72.06;98915.16;1769031;80;22814;-57
2022/03/28 06:03:27;;;;;;;37.75;17.60;;;;;;;-0.32;72.86;98908.39;1762516;80;21538;-57
2022/03/28 06:05:54;;;;;;;33.95;16.90;;;;;;;-0.21;73.12;98912.39;1740937;80;21089;-57
2022/03/28 06:08:21;;;;;;;38.30;17.17;;;;;;;-0.08;71.95;98911.20;1742916;80;21008;-56
2022/03/28 06:10:48;;;;;;;43.38;20.40;;;;;;;-0.02;71.95;98907.25;1756863;80;20982;-57
2022/03/28 06:13:16;;;;;;;40.92;19.30;;;;;;;0.18;71.75;98904.79;1757695;80;22216;-57
2022/03/28 06:15:43;;;;;;;39.03;17.00;;;;;;;0.61;71.77;98907.91;1741119;81;21471;-57
2022/03/28 06:18:10;;;;;;;33.18;14.93;;;;;;;1.00;70.16;98897.98;1747700;80;21017;-57
2022/03/28 06:20:37;;;;;;;35.38;16.35;;;;;;;1.41;69.39;98906.81;1711659;82;21026;-56
2022/03/28 06:23:04;;;;;;;32.63;15.95;;;;;;;1.86;69.82;98894.31;1752871;80;21021;-57
2022/03/28 06:25:32;;;;;;;33.45;17.12;;;;;;;2.02;67.30;98897.13;1749134;80;21272;-57
2022/03/28 06:27:59;;;;;;;34.53;15.93;;;;;;;2.15;68.98;98893.97;1743448;80;21065;-56
2022/03/28 06:30:26;;;;;;;43.48;20.12;;;;;;;2.19;66.77;98883.16;1741919;80;21576;-57
2022/03/28 06:32:53;;;;;;;42.50;19.70;;;;;;;2.48;67.18;98887.30;1743043;80;20997;-57
2022/03/28 06:35:20;;;;;;;40.03;22.77;;;;;;;2.66;66.29;98878.63;1741205;82;21451;-57
2022/03/28 06:37:52;;;;;;;29.10;14.47;;;;;;;2.76;64.22;98880.36;1749516;80;21693;-56
2022/03/28 06:40:16;;;;;;;28.07;17.20;;;;;;;2.89;64.40;98871.47;1745941;80;20890;-56
2022/03/28 06:42:44;;;;;;;28.85;14.07;;;;;;;2.99;63.72;98879.91;1743921;80;21691;-57
2022/03/28 06:45:11;;;;;;;30.85;17.90;;;;;;;3.13;61.80;98867.29;1743947;81;21037;-56
2022/03/28 06:47:38;;;;;;;34.30;23.47;;;;;;;3.67;63.40;98864.19;1724133;80;21086;-57
2022/03/28 06:50:07;;;;;;;28.32;15.88;;;;;;;4.08;58.46;98863.40;1741530;81;21291;-57
2022/03/28 06:52:34;;;;;;;50.08;25.52;;;;;;;4.73;59.58;98861.22;1745261;80;21112;-57
2022/03/28 06:55:02;;;;;;;38.25;21.17;;;;;;;5.49;61.60;98844.64;1760279;80;20989;-57
2022/03/28 06:57:29;;;;;;;38.13;19.65;;;;;;;6.21;59.81;98846.02;1767068;80;21451;-55
2022/03/28 06:59:55;;;;;;;34.90;17.73;;;;;;;6.99;60.99;98842.98;1741467;80;21103;-57
2022/03/28 07:02:22;;;;;;;128.18;28.35;;;;;;;7.52;59.35;98837.05;1742417;80;21033;-58
2022/03/28 07:04:49;;;;;;;37.58;20.55;;;;;;;7.97;56.35;98834.95;1755405;80;21143;-57
2022/03/28 07:07:16;;;;;;;29.32;19.32;;;;;;;8.62;54.91;98837.12;1758376;80;21396;-57
2022/03/28 07:09:43;;;;;;;31.73;18.77;;;;;;;9.23;51.45;98817.19;1749135;80;20993;-57
2022/03/28 07:12:10;;;;;;;29.27;19.20;;;;;;;10.19;52.33;98816.56;1767491;80;20986;-58
2022/03/28 07:14:37;;;;;;;35.25;21.27;;;;;;;10.51;50.05;98817.95;1768237;80;23067;-58
2022/03/28 07:17:04;;;;;;;52.23;32.13;;;;;;;10.66;50.09;98804.48;1769410;80;21022;-58
2022/03/28 07:19:31;;;;;;;33.02;20.12;;;;;;;11.34;47.74;98811.90;1737900;80;20985;-57
2022/03/28 07:21:58;;;;;;;34.30;22.65;;;;;;;11.72;46.22;98802.54;1750487;80;21131;-57
2022/03/28 07:24:25;;;;;;;91.80;71.33;;;;;;;11.93;44.96;98798.80;1752332;80;21080;-58
2022/03/28 07:26:53;;;;;;;36.90;25.05;;;;;;;12.59;42.98;98793.38;1740989;81;22125;-58
2022/03/28 07:29:20;;;;;;;103.90;80.03;;;;;;;12.85;42.17;98787.89;1741463;80;21428;-57
2022/03/28 07:31:48;;;;;;;46.37;35.68;;;;;;;13.12;42.50;98787.53;1741389;81;21022;-57
2022/03/28 07:34:30;;;;;;;34.58;22.77;;;;;;;13.77;40.58;98780.19;1741175;81;21061;-58
2022/03/28 07:36:57;;;;;;;31.62;18.25;;;;;;;14.13;39.97;98769.84;1746762;80;21209;-57
2022/03/28 07:39:24;;;;;;;24.50;14.65;;;;;;;14.81;38.61;98768.44;1744062;80;21404;-58
2022/03/28 07:41:51;;;;;;;37.48;20.75;;;;;;;15.15;37.96;98763.42;1741395;80;20994;-58
2022/03/28 07:44:18;;;;;;;33.83;18.30;;;;;;;15.74;36.84;98753.94;1741161;80;20949;-57
2022/03/28 07:46:45;;;;;;;34.92;22.80;;;;;;;16.30;35.73;98748.94;1741374;81;21463;-58
2022/03/28 07:49:13;;;;;;;46.65;32.10;;;;;;;16.74;33.71;98747.08;1738995;80;21089;-58
2022/03/28 07:51:40;;;;;;;26.55;17.98;;;;;;;16.88;33.17;98743.81;1756533;80;21037;-58
2022/03/28 07:54:06;;;;;;;31.42;19.00;;;;;;;17.16;33.10;98736.41;1746686;80;21005;-58
2022/03/28 07:56:33;;;;;;;86.00;54.38;;;;;;;17.36;32.84;98729.70;1750097;80;21135;-58
2022/03/28 07:59:01;;;;;;;22.17;16.35;;;;;;;17.88;33.27;98715.69;1737750;80;47719;-57
2022/03/28 08:01:28;;;;;;;31.00;18.32;;;;;;;18.58;32.35;98717.76;1705900;83;21101;-58
2022/03/28 08:03:55;;;;;;;27.10;15.55;;;;;;;19.26;32.79;98712.87;1752958;80;21603;-58
2022/03/28 08:06:22;;;;;;;22.58;14.38;;;;;;;20.20;31.36;98711.33;1744228;80;21376;-58
2022/03/28 08:08:49;;;;;;;22.75;13.48;;;;;;;20.58;28.84;98703.73;1745458;80;21132;-58
2022/03/28 08:11:16;;;;;;;15.48;10.28;;;;;;;20.96;28.68;98703.19;1765267;80;20994;-58
2022/03/28 08:13:43;;;;;;;16.67;10.45;;;;;;;21.55;28.26;98696.88;1741412;81;21069;-58
2022/03/28 08:16:11;;;;;;;13.90;9.15;;;;;;;21.91;28.25;98694.88;1743271;81;22015;-58
2022/03/28 08:18:39;;;;;;;11.18;7.87;;;;;;;22.56;27.58;98682.23;1745657;80;21433;-59
2022/03/28 08:21:06;;;;;;;16.00;9.05;;;;;;;23.64;24.75;98677.62;1745705;80;21021;-58
2022/03/28 08:23:32;;;;;;;11.60;7.33;;;;;;;23.95;24.39;98674.18;1753032;80;21085;-59
2022/03/28 08:25:59;;;;;;;11.75;7.42;;;;;;;24.34;24.92;98671.70;1744256;80;21467;-59
2022/03/28 08:28:26;;;;;;;13.40;7.97;;;;;;;24.92;23.88;98659.53;1745619;80;21188;-58
2022/03/28 08:30:53;;;;;;;7.50;6.17;;;;;;;25.68;23.25;98653.96;1743572;80;21049;-58
2022/03/28 08:33:20;;;;;;;6.58;5.78;;;;;;;26.22;22.39;98647.52;1743127;80;21060;-58
2022/03/28 08:35:47;;;;;;;12.80;6.60;;;;;;;26.51;20.32;98642.53;1740968;80;21052;-59
2022/03/28 08:38:15;;;;;;;6.55;5.25;;;;;;;26.40;20.25;98634.78;1743078;80;21093;-58
2022/03/28 08:40:42;;;;;;;12.00;6.63;;;;;;;26.41;19.99;98639.78;1741621;80;22231;-58
2022/03/28 08:43:09;;;;;;;6.62;5.83;;;;;;;26.02;20.37;98636.23;1750114;80;21631;-58
2022/03/28 08:45:38;;;;;;;8.83;5.58;;;;;;;26.02;19.85;98638.42;1741054;81;21089;-58
2022/03/28 08:48:08;;;;;;;7.12;5.70;;;;;;;25.77;19.06;98631.57;1747562;80;21068;-58
2022/03/28 08:50:35;;;;;;;8.95;6.53;;;;;;;25.74;19.52;98625.38;1750300;79;21427;-58
2022/03/28 08:53:04;;;;;;;9.63;6.20;;;;;;;26.09;19.45;98629.44;1745778;80;21041;-58
2022/03/28 08:55:31;;;;;;;9.83;5.42;;;;;;;26.33;19.32;98619.38;1753385;80;21739;-59
2022/03/28 08:57:58;;;;;;;7.20;5.67;;;;;;;26.54;19.30;98622.33;1740262;80;21073;-58
2022/03/28 09:00:25;;;;;;;7.40;5.83;;;;;;;24.57;19.78;98618.70;1742162;80;21588;-58
2022/03/28 09:02:57;;;;;;;8.35;5.47;;;;;;;23.37;21.22;98610.02;1741188;82;21093;-58
2022/03/28 09:05:36;;;;;;;9.88;5.92;;;;;;;21.96;22.47;98611.88;1745741;80;21113;-59
2022/03/28 09:08:04;;;;;;;7.83;5.87;;;;;;;21.12;23.80;98602.29;1748771;80;21076;-59
2022/03/28 09:10:35;;;;;;;6.30;5.08;;;;;;;19.98;24.77;98610.54;1744911;80;21112;-59
2022/03/28 09:13:10;;;;;;;8.45;5.67;;;;;;;19.40;25.48;98596.20;1742680;80;20983;-59
2022/03/28 09:15:45;;;;;;;10.10;5.83;;;;;;;18.79;25.94;98596.67;1750544;80;21042;-59
2022/03/28 09:18:27;;;;;;;10.03;6.30;;;;;;;18.49;26.56;98592.86;1748199;80;21772;-55
2022/03/28 09:21:00;;;;;;;9.45;6.42;;;;;;;17.93;27.75;98588.08;1741735;80;21024;-56
2022/03/28 09:23:39;;;;;;;10.43;5.22;;;;;;;17.57;28.03;98589.51;1748701;80;20978;-56
2022/03/28 09:26:24;;;;;;;11.40;6.12;;;;;;;17.37;28.46;98589.45;1750760;80;21096;-56
2022/03/28 09:29:00;;;;;;;8.83;5.58;;;;;;;17.26;28.44;98589.41;1751014;80;21025;-56
2022/03/28 09:31:39;;;;;;;9.45;5.40;;;;;;;17.18;28.37;98588.25;1741360;82;20932;-56
2022/03/28 09:34:18;;;;;;;9.58;6.00;;;;;;;17.03;28.25;98577.64;1761585;80;20974;-57
2022/03/28 09:36:56;;;;;;;14.65;5.67;;;;;;;16.87;28.68;98582.64;1740867;80;21003;-56
2022/03/28 09:39:32;;;;;;;8.07;5.63;;;;;;;16.65;28.95;98569.09;1741501;80;20974;-56
2022/03/28 09:42:08;;;;;;;10.35;5.28;;;;;;;16.57;29.17;98560.23;1750122;80;22076;-56
2022/03/28 09:44:48;;;;;;;11.45;5.47;;;;;;;16.41;29.34;98563.59;1745834;80;21763;-56
2022/03/28 09:47:18;;;;;;;13.55;6.58;;;;;;;16.37;29.45;98555.20;1741383;80;21009;-56
2022/03/28 09:49:46;;;;;;;8.85;5.58;;;;;;;16.36;29.48;98549.48;1741521;80;21100;-56
2022/03/28 09:52:16;;;;;;;11.18;6.28;;;;;;;16.37;29.52;98551.09;1752450;80;21446;-56
2022/03/28 09:54:52;;;;;;;9.75;5.28;;;;;;;16.38;29.72;98539.59;1750158;80;21005;-56
2022/03/28 09:57:25;;;;;;;8.35;6.00;;;;;;;16.23;29.61;98529.20;1755820;80;21037;-56
2022/03/28 09:59:53;;;;;;;12.37;6.67;;;;;;;16.28;29.74;98526.95;1757351;80;21068;-56
2022/03/28 10:02:24;;;;;;;11.95;8.20;;;;;;;16.32;29.92;98526.05;1742345;80;21487;-56
2022/03/28 10:04:54;;;;;;;7.70;5.05;;;;;;;16.39;29.79;98518.77;1753432;80;20973;-57
2022/03/28 10:07:21;;;;;;;7.62;4.30;;;;;;;16.49;29.44;98516.38;1748116;80;21050;-56
2022/03/28 10:09:50;;;;;;;11.35;4.90;;;;;;;16.58;28.88;98511.83;1760490;80;21584;-56
2022/03/28 10:12:18;;;;;;;6.40;4.28;;;;;;;16.59;28.91;98503.88;1746128;80;27288;-55
2022/03/28 10:14:51;;;;;;;14.13;5.10;;;;;;;16.60;28.91;98499.45;1746135;80;21021;-56
2022/03/28 10:17:19;;;;;;;9.38;4.37;;;;;;;16.67;28.96;98500.97;1757224;80;21163;-56
2022/03/28 10:19:46;;;;;;;6.55;4.58;;;;;;;16.75;28.29;98499.72;1753863;80;21037;-56
2022/03/28 10:22:16;;;;;;;7.58;4.90;;;;;;;16.76;28.07;98503.27;1749028;80;21295;-56
2022/03/28 10:24:43;;;;;;;7.92;4.65;;;;;;;16.73;27.95;98498.38;1752544;80;21006;-56
2022/03/28 10:27:10;;;;;;;6.33;3.95;;;;;;;16.67;28.28;98483.19;1752128;80;21104;-56
2022/03/28 10:29:39;;;;;;;8.25;5.03;;;;;;;16.62;28.27;98477.26;1752349;80;21036;-56
2022/03/28 10:32:15;;;;;;;32.65;26.50;;;;;;;16.69;28.44;98485.08;1758383;80;21038;-55
2022/03/28 10:34:53;;;;;;;13.30;12.00;;;;;;;16.79;28.67;98480.18;1751163;80;22247;-57
2022/03/28 10:37:39;;;;;;;8.78;5.42;;;;;;;16.88;28.64;98479.69;1749643;80;21188;-57
2022/03/28 10:40:19;;;;;;;6.25;4.25;;;;;;;16.91;28.66;98470.04;1753819;80;20985;-56
2022/03/28 10:43:09;;;;;;;10.20;5.95;;;;;;;16.88;28.71;98467.94;1748356;80;21500;-57
2022/03/28 10:45:56;;;;;;;8.08;6.30;;;;;;;16.91;28.07;98455.80;1746599;80;21131;-56
2022/03/28 10:48:44;;;;;;;10.15;6.30;;;;;;;16.95;28.58;98448.35;1750673;80;21483;-56
2022/03/28 10:51:24;;;;;;;10.72;5.08;;;;;;;17.06;28.70;98450.52;1761649;80;21057;-56
2022/03/28 10:53:59;;;;;;;11.00;4.60;;;;;;;17.11;28.45;98451.77;1757046;80;21083;-57
2022/03/28 10:56:35;;;;;;;7.05;4.83;;;;;;;17.13;28.45;98448.72;1755448;80;21021;-56
2022/03/28 10:59:08;;;;;;;10.93;4.28;;;;;;;17.12;28.57;98438.33;1751365;80;21011;-57
2022/03/28 11:01:46;;;;;;;9.78;4.45;;;;;;;17.17;28.09;98433.27;1743832;80;21021;-55
2022/03/28 11:04:20;;;;;;;8.70;4.37;;;;;;;17.22;28.15;98432.34;1741669;80;21586;-56
2022/03/28 11:07:00;;;;;;;6.62;4.53;;;;;;;17.23;28.38;98426.55;1750084;80;21088;-57
2022/03/28 11:09:45;;;;;;;9.00;4.42;;;;;;;17.34;28.42;98422.41;1752329;80;20958;-56
2022/03/28 11:12:34;;;;;;;6.55;4.05;;;;;;;17.34;28.06;98423.78;1750555;80;21038;-56
2022/03/28 11:15:20;;;;;;;6.17;4.47;;;;;;;17.37;28.29;98409.48;1741104;81;21691;-57
2022/03/28 11:17:58;;;;;;;6.22;4.15;;;;;;;17.40;28.47;98406.09;1705641;82;21082;-56
2022/03/28 11:20:27;;;;;;;9.75;4.30;;;;;;;17.45;28.32;98395.02;1741256;82;21338;-56
2022/03/28 11:23:09;;;;;;;9.40;3.92;;;;;;;17.49;28.17;98396.55;1742220;82;21431;-56
2022/03/28 11:25:56;;;;;;;5.10;3.40;;;;;;;17.49;27.93;98389.70;1755850;80;21065;-56
2022/03/28 11:28:27;;;;;;;6.47;3.85;;;;;;;17.54;28.19;98393.69;1750954;80;21001;-56
2022/03/28 11:31:07;;;;;;;7.00;4.37;;;;;;;17.59;28.23;98392.72;1697878;84;21069;-56